Details From EDTY - Schwabisch Hall
To LHPR - Gyor Per
Flight Number -
Tags Decoded
Created
Modified
Stats Distance 352 nm / 653 km
Max Altitude 0 ft / 0 m
Waypoints 5
Social Downloads 3
Likes 0
Share VATSIM

Download

Looking for another format? Having issues loading an existing format? Contact us
Advertisement - Login to hide

Notes

Decoded

Route

NOMBO RIDAR MIQ STO ANEXA

ID Type Via Altitude Latitude Longitude Leg Dist Tot Dist Heading (true) Name
O NOMBO FIX - 0 ft / 0 m 49.06361˚ 10.08806˚ - 0 nm - -
RIDAR FIX - 0 ft / 0 m 48.58833˚ 10.80278˚ 40 nm 40 nm 135° / 136° -
MIQ NDB - 0 ft / 0 m 48.57023˚ 11.59750˚ 31 nm 71 nm 92° / 92° MIKE NDB
STO VOR - 0 ft / 0 m 48.41714˚ 16.01859˚ 176 nm 247 nm 91° / 95° STOCKERAU VOR-DME
O ANEXA FIX - 0 ft / 0 m 47.85472˚ 18.48611˚ 104 nm 352 nm 108° / 110° -

Altitude Profile

Advertisement - Login to hide

Weather


0- 5 10 15 20 25 30 35+ Temperature / ° C

Clouds and Precipitation
Forecast for 2017-12-13 06:00 UTC. Updated 18 minutes ago

Ground ~20,000 ft ~40,000 ft Winds

EDTY

Details ICAO EDTY
Name SCHWABISCH HALL
Region Germany - Civil
Timezone Europe/Berlin (UTC+1.0)
Stats Elevation 1,311 ft / 400 m (AMSL)
Location 49.118474° 9.785239°
Runways 2
Magnetic Variation 2.674° E

METAR

EDTY 130520Z 21005KT 160V260 9999 BKN049 00/M03 Q1016

Decode

TAF

Not found

Departure Runways

ID Width Length Bearing (true) Bearing (mag) Surface Threshold Offset Overrun Length
10 98 ft / 30 m 5,039 ft / 1,536 m 98.80° 96.13° Concrete 575 ft / 175 m 0 ft / 0 m
10L 98 ft / 30 m 2,474 ft / 754 m 99.00° 96.33° Grass 0 ft / 0 m 0 ft / 0 m
28 98 ft / 30 m 5,039 ft / 1,536 m 278.82° 276.15° Concrete 415 ft / 126 m 0 ft / 0 m
28R 98 ft / 30 m 2,474 ft / 754 m 279.01° 276.34° Grass 0 ft / 0 m 0 ft / 0 m

LHPR

Details ICAO LHPR (QGY)
Name GYOR PER
Region Hungary
Timezone Europe/Budapest (UTC+1.0)
Stats Elevation 424 ft / 129 m (AMSL)
Location 47.626859° 17.812413°
Runways 2
Magnetic Variation 4.480° E

METAR

LHPR 130515Z 30007KT CAVOK 03/01 Q1019 RMK BLU

Decode

TAF

Not found

Destination Runways

ID Width Length Bearing (true) Bearing (mag) Surface Threshold Offset Overrun Length
12 98 ft / 30 m 4,748 ft / 1,447 m 119.53° 115.05° Asphalt 0 ft / 0 m 0 ft / 0 m
12L 140 ft / 43 m 3,724 ft / 1,135 m 119.30° 114.82° Dirt 0 ft / 0 m 0 ft / 0 m
30 98 ft / 30 m 4,748 ft / 1,447 m 299.54° 295.06° Asphalt 0 ft / 0 m 0 ft / 0 m
30R 140 ft / 43 m 3,724 ft / 1,135 m 299.31° 294.83° Dirt 0 ft / 0 m 0 ft / 0 m